Terminal Aerodrome Forecast
Issued by NWS

Home | Current Version | Previous Version | Text Only | Print | Product List | Glossary On
Versions: 1 2 3 4 5 6 7 8 9 10 11 12 13 14 15 16 17 18 19 20 21 22
440
FTUS43 KDVN 270520
TAFCID
TAF
KCID 270520Z 2706/2806 VRB03KT P6SM SCT250
      TEMPO 2710/2713 3SM BR
     FM271600 16006KT P6SM SCT040 SCT250
     FM280200 VRB03KT 6SM HZ BKN120=

USA.gov is the U.S. government's official web portal to all federal, state and local government web resources and services.